createdAt,value
2022-09-21T00:00:47.048Z,-20176.78
2022-09-21T00:03:16.023Z,-20174.00
2022-09-21T00:05:43.966Z,-20172.94
2022-09-21T00:08:13.960Z,-20171.25
2022-09-21T00:10:43.330Z,-20169.88
2022-09-21T00:13:13.489Z,-20167.88
2022-09-21T00:15:41.961Z,-20165.91
2022-09-21T00:18:11.368Z,-20164.22
2022-09-21T00:20:43.518Z,-20164.22
2022-09-21T00:23:11.606Z,-20162.97
2022-09-21T00:25:39.290Z,-20161.28
2022-09-21T00:28:08.321Z,-20161.00
2022-09-21T00:30:37.780Z,-20158.06
2022-09-21T00:33:05.595Z,-20156.53
2022-09-21T00:35:33.474Z,-20158.69
2022-09-21T00:38:02.590Z,-20154.72
2022-09-21T00:40:33.294Z,-20153.34
2022-09-21T00:43:18.370Z,-20152.25
2022-09-21T00:45:50.287Z,-20152.09
2022-09-21T00:48:18.122Z,-20150.72
2022-09-21T00:50:53.897Z,-20152.41
2022-09-21T00:53:22.482Z,-20150.88
2022-09-21T00:55:55.402Z,-20148.28
2022-09-21T00:58:30.537Z,-20146.13
2022-09-21T01:01:00.961Z,-20146.28
2022-09-21T01:03:29.105Z,-20146.44
2022-09-21T01:05:57.258Z,-20145.81
2022-09-21T01:08:27.110Z,-20145.19
2022-09-21T01:11:25.524Z,-20144.75
2022-09-21T01:14:12.716Z,-20144.28
2022-09-21T01:16:49.874Z,-20144.59
2022-09-21T01:19:30.321Z,-20145.66
2022-09-21T01:22:06.030Z,-20145.50
2022-09-21T01:24:57.449Z,-20145.81
2022-09-21T01:27:49.817Z,-20144.59
2022-09-21T01:30:20.587Z,-20141.84
2022-09-21T01:32:53.744Z,-20142.13
2022-09-21T01:35:25.814Z,-20139.84
2022-09-21T01:37:58.321Z,-20139.53
2022-09-21T01:40:35.431Z,-20138.47
2022-09-21T01:43:06.375Z,-20137.84
2022-09-21T01:45:40.248Z,-20134.47
2022-09-21T01:48:09.206Z,-20136.16
2022-09-21T01:50:41.538Z,-20134.16
2022-09-21T01:53:15.318Z,-20131.09
2022-09-21T01:55:50.162Z,-20133.09
2022-09-21T01:58:25.781Z,-20132.31
2022-09-21T02:00:58.286Z,-20132.47
2022-09-21T02:03:30.693Z,-20131.09
2022-09-21T02:06:02.947Z,-20131.41
2022-09-21T02:08:32.221Z,-20132.03
2022-09-21T02:11:02.841Z,-20130.63
2022-09-21T02:13:34.124Z,-20129.56
2022-09-21T02:16:22.200Z,-20131.41
2022-09-21T02:18:58.897Z,-20130.34
2022-09-21T02:21:33.087Z,-20129.41
2022-09-21T02:24:09.454Z,-20126.34
2022-09-21T02:26:44.620Z,-20126.34
2022-09-21T02:29:19.162Z,-20124.66
2022-09-21T02:31:54.901Z,-20123.75
2022-09-21T02:34:29.602Z,-20123.28
2022-09-21T02:37:03.791Z,-20123.44
2022-09-21T02:39:38.007Z,-20120.97
2022-09-21T02:42:10.237Z,-20121.75
2022-09-21T02:44:43.672Z,-20119.00
2022-09-21T02:47:18.434Z,-20120.38
2022-09-21T02:49:51.288Z,-20120.06
2022-09-21T02:52:20.501Z,-20119.44
2022-09-21T02:54:52.947Z,-20117.44
2022-09-21T02:57:24.328Z,-20114.38
2022-09-21T02:59:53.283Z,-20117.59
2022-09-21T03:02:22.292Z,-20115.16
2022-09-21T03:04:50.191Z,-20116.06
2022-09-21T03:07:18.503Z,-20116.22
2022-09-21T03:09:46.659Z,-20115.47
2022-09-21T03:12:14.317Z,-20114.84
2022-09-21T03:14:42.183Z,-20113.63
2022-09-21T03:17:10.127Z,-20113.63
2022-09-21T03:19:39.117Z,-20112.69
2022-09-21T03:22:06.731Z,-20111.47
2022-09-21T03:24:46.585Z,-20109.16
2022-09-21T03:27:14.607Z,-20109.47
2022-09-21T03:29:42.932Z,-20109.00
2022-09-21T03:32:10.710Z,-20108.72
2022-09-21T03:34:39.711Z,-20109.16
2022-09-21T03:37:09.397Z,-20111.78
2022-09-21T03:39:37.612Z,-20109.78
2022-09-21T03:42:05.353Z,-20109.63
2022-09-21T03:44:32.967Z,-20109.31
2022-09-21T03:47:00.806Z,-20104.72
2022-09-21T03:49:29.189Z,-20106.56
2022-09-21T03:51:59.111Z,-20105.63
2022-09-21T03:54:26.808Z,-20108.09
2022-09-21T03:56:54.654Z,-20106.09
2022-09-21T03:59:22.266Z,-20105.47
2022-09-21T04:01:50.106Z,-20106.56
2022-09-21T04:04:17.727Z,-20105.63
2022-09-21T04:06:46.137Z,-20106.25
2022-09-21T04:09:15.117Z,-20104.25
2022-09-21T04:11:42.954Z,-20103.94
2022-09-21T04:14:12.700Z,-20103.78
2022-09-21T04:16:40.270Z,-20101.94
2022-09-21T04:19:07.899Z,-20103.19
2022-09-21T04:21:35.946Z,-20101.34
2022-09-21T04:24:04.278Z,-20101.94
2022-09-21T04:26:35.654Z,-20102.09
2022-09-21T04:29:03.655Z,-20100.88
2022-09-21T04:31:31.463Z,-20100.72
2022-09-21T04:33:59.336Z,-20099.19
2022-09-21T04:36:32.082Z,-20098.56
2022-09-21T04:39:03.617Z,-20096.13
2022-09-21T04:41:31.180Z,-20096.13
2022-09-21T04:44:00.336Z,-20095.66
2022-09-21T04:46:28.015Z,-20094.75
2022-09-21T04:48:55.726Z,-20095.81
2022-09-21T04:51:23.466Z,-20097.66
2022-09-21T04:53:51.360Z,-20092.91
2022-09-21T04:56:19.448Z,-20093.06
2022-09-21T04:58:46.989Z,-20095.50
2022-09-21T05:01:16.178Z,-20092.28
2022-09-21T05:03:43.991Z,-20090.44
2022-09-21T05:06:13.367Z,-20091.53
2022-09-21T05:08:58.976Z,-20091.22
2022-09-21T05:11:27.003Z,-20086.91
2022-09-21T05:13:54.721Z,-20086.91
2022-09-21T05:16:23.734Z,-20086.00
2022-09-21T05:18:54.498Z,-20084.16
2022-09-21T05:21:22.222Z,-20084.00
2022-09-21T05:23:49.782Z,-20084.78
2022-09-21T05:26:17.417Z,-20084.91
2022-09-21T05:28:45.525Z,-20084.47
2022-09-21T05:31:32.904Z,-20083.84
2022-09-21T05:34:07.425Z,-20083.06
2022-09-21T05:36:46.622Z,-20084.63
2022-09-21T05:39:14.701Z,-20084.16
2022-09-21T05:41:42.929Z,-20083.53
2022-09-21T05:44:13.553Z,-20083.53
2022-09-21T05:46:52.707Z,-20085.38
2022-09-21T05:49:30.070Z,-20089.97
2022-09-21T05:52:05.481Z,-20095.19
2022-09-21T05:54:45.539Z,-20100.13
2022-09-21T05:57:20.882Z,-20102.88
2022-09-21T05:59:58.586Z,-20111.16
2022-09-21T06:02:44.478Z,-20113.00
2022-09-21T06:05:13.652Z,-20113.91
2022-09-21T06:07:42.409Z,-20116.06
2022-09-21T06:10:11.387Z,-20120.38
2022-09-21T06:12:39.251Z,-20120.66
2022-09-21T06:15:08.816Z,-20127.88
2022-09-21T06:17:37.754Z,-20126.66
2022-09-21T06:20:07.048Z,-20129.56
2022-09-21T06:22:34.961Z,-20132.63
2022-09-21T06:25:02.541Z,-20134.94
2022-09-21T06:27:30.549Z,-20139.38
2022-09-21T06:29:58.289Z,-20146.91
2022-09-21T06:32:25.837Z,-20149.03
2022-09-21T06:34:54.927Z,-20154.72
2022-09-21T06:37:22.489Z,-20159.16
2022-09-21T06:39:50.071Z,-20160.69
2022-09-21T06:42:17.681Z,-20169.09
2022-09-21T06:44:45.223Z,-20175.09
2022-09-21T06:47:12.800Z,-20181.38
2022-09-21T06:49:42.471Z,-20174.78
2022-09-21T06:52:11.670Z,-20165.91
2022-09-21T06:54:39.612Z,-20161.13
2022-09-21T06:57:07.619Z,-20159.75
2022-09-21T06:59:35.373Z,-20160.69
2022-09-21T07:02:03.877Z,-20162.38
2022-09-21T07:04:32.394Z,-20166.50
2022-09-21T07:07:02.920Z,-20166.97
2022-09-21T07:12:21.003Z,-20176.47
2022-09-21T07:14:48.689Z,-20182.59
2022-09-21T07:17:16.228Z,-20185.66
2022-09-21T07:19:44.058Z,-20192.41
2022-09-21T07:22:11.654Z,-20199.75
2022-09-21T07:24:40.526Z,-20207.41
2022-09-21T07:27:08.059Z,-20213.53
2022-09-21T07:29:35.626Z,-20218.41
2022-09-21T07:32:03.432Z,-20224.38
2022-09-21T07:34:31.121Z,-20233.41
2022-09-21T07:36:58.661Z,-20258.03
2022-09-21T07:39:26.217Z,-20285.41
2022-09-21T07:41:55.114Z,-20314.41
2022-09-21T07:44:22.673Z,-20358.81
2022-09-21T07:46:50.483Z,-20387.94
2022-09-21T07:49:18.318Z,-20413.84
2022-09-21T07:51:45.914Z,-20435.91
2022-09-21T07:54:15.061Z,-20431.06
2022-09-21T07:57:03.151Z,-20441.56
2022-09-21T07:59:32.796Z,-20452.19
2022-09-21T08:02:00.908Z,-20422.38
2022-09-21T08:04:28.781Z,-20429.06
2022-09-21T08:06:56.531Z,-20446.13
2022-09-21T08:09:24.125Z,-20469.53
2022-09-21T08:11:52.973Z,-20468.78
2022-09-21T08:14:25.343Z,-20461.50
2022-09-21T08:16:55.170Z,-20484.13
2022-09-21T08:19:25.832Z,-20489.00
2022-09-21T08:21:57.277Z,-20482.31
2022-09-21T08:24:26.747Z,-20475.94
2022-09-21T08:26:55.714Z,-20488.84
2022-09-21T08:29:23.400Z,-20484.13
2022-09-21T08:31:51.026Z,-20480.50
2022-09-21T08:34:20.542Z,-20464.97
2022-09-21T08:36:55.003Z,-20488.53
2022-09-21T08:39:24.003Z,-20488.09
2022-09-21T08:42:11.545Z,-20488.25
2022-09-21T08:44:43.573Z,-20484.13
2022-09-21T08:47:16.742Z,-20491.75
2022-09-21T08:49:52.266Z,-20487.78
2022-09-21T08:52:21.461Z,-20485.06
2022-09-21T08:54:55.657Z,-20489.31
2022-09-21T08:57:26.339Z,-20499.34
2022-09-21T08:59:54.039Z,-20493.41
2022-09-21T09:02:38.435Z,-20522.44
2022-09-21T09:05:24.829Z,-20548.09
2022-09-21T09:08:19.696Z,-20524.41
2022-09-21T09:11:01.026Z,-20511.78
2022-09-21T09:13:53.802Z,-20500.41
2022-09-21T09:16:29.575Z,-20499.34
2022-09-21T09:19:05.736Z,-20512.69
2022-09-21T09:21:39.406Z,-20529.09
2022-09-21T09:24:13.761Z,-20535.19
2022-09-21T09:26:47.395Z,-20548.69
2022-09-21T09:29:19.839Z,-20534.72
2022-09-21T09:31:47.330Z,-20547.63
2022-09-21T09:34:17.793Z,-20531.22
2022-09-21T09:36:58.249Z,-20521.22
2022-09-21T09:39:27.627Z,-20521.06
2022-09-21T09:42:01.815Z,-20527.88
2022-09-21T09:44:38.970Z,-20551.13
2022-09-21T09:47:12.221Z,-20537.44
2022-09-21T09:49:44.357Z,-20559.44
2022-09-21T09:52:14.483Z,-20561.28
2022-09-21T09:54:41.939Z,-20559.91
2022-09-21T09:57:10.909Z,-20560.81
2022-09-21T09:59:40.826Z,-20555.50
2022-09-21T10:02:19.519Z,-20591.28
2022-09-21T10:04:55.236Z,-20581.44
2022-09-21T10:07:35.583Z,-20595.09
2022-09-21T10:10:03.364Z,-20618.41
2022-09-21T10:12:31.957Z,-20586.44
2022-09-21T10:15:01.548Z,-20588.25
2022-09-21T10:17:29.154Z,-20573.88
2022-09-21T10:20:05.311Z,-20594.63
2022-09-21T10:22:34.252Z,-20594.94
2022-09-21T10:25:05.990Z,-20612.50
2022-09-21T10:27:36.676Z,-20615.22
2022-09-21T10:30:04.895Z,-20621.59
2022-09-21T10:32:32.664Z,-20637.94
2022-09-21T10:35:15.988Z,-20603.13
2022-09-21T10:37:48.297Z,-20625.53
2022-09-21T10:40:27.840Z,-20632.31
2022-09-21T10:42:58.618Z,-20654.72
2022-09-21T10:45:28.406Z,-20610.06
2022-09-21T10:47:59.071Z,-20648.97
2022-09-21T10:50:29.728Z,-20638.84
2022-09-21T10:53:02.035Z,-20615.38
2022-09-21T10:55:32.149Z,-20635.50
2022-09-21T10:58:00.921Z,-20611.28
2022-09-21T11:00:35.451Z,-20589.16
2022-09-21T11:03:25.963Z,-20626.44
2022-09-21T11:05:55.178Z,-20615.22
2022-09-21T11:08:31.730Z,-20638.84
2022-09-21T11:11:12.006Z,-20671.19
2022-09-21T11:13:47.366Z,-20637.94
2022-09-21T11:16:17.645Z,-20640.66
2022-09-21T11:18:51.076Z,-20625.81
2022-09-21T11:21:27.313Z,-20617.03
2022-09-21T11:24:06.973Z,-20640.97
2022-09-21T11:26:40.765Z,-20635.81
2022-09-21T11:29:12.152Z,-20655.94
2022-09-21T11:31:51.182Z,-20666.38
2022-09-21T11:34:29.592Z,-20619.16
2022-09-21T11:37:00.735Z,-20616.75
2022-09-21T11:39:35.809Z,-20646.41
2022-09-21T11:42:11.082Z,-20640.66
2022-09-21T11:44:48.094Z,-20612.50
2022-09-21T11:47:24.128Z,-20617.03
2022-09-21T11:50:19.547Z,-20636.41
2022-09-21T11:52:55.162Z,-20604.47
2022-09-21T11:55:32.676Z,-20633.09
2022-09-21T11:58:03.154Z,-20638.38
2022-09-21T12:00:34.601Z,-20646.41
2022-09-21T12:03:28.880Z,-20643.97
2022-09-21T12:06:07.238Z,-20651.84
2022-09-21T12:08:46.134Z,-20629.75
2022-09-21T12:11:22.089Z,-20604.31
2022-09-21T12:13:53.893Z,-20615.69
2022-09-21T12:16:26.624Z,-20580.69
2022-09-21T12:19:01.337Z,-20591.59
2022-09-21T12:21:29.990Z,-20613.72
2022-09-21T12:23:58.780Z,-20590.69
2022-09-21T12:26:30.236Z,-20575.69
2022-09-21T12:29:00.968Z,-20619.47
2022-09-21T12:31:31.770Z,-20635.19
2022-09-21T12:34:03.264Z,-20621.44
2022-09-21T12:36:35.988Z,-20619.16
2022-09-21T12:39:08.913Z,-20608.72
2022-09-21T12:41:40.322Z,-20609.16
2022-09-21T12:44:15.356Z,-20584.47
2022-09-21T12:46:48.017Z,-20572.81
2022-09-21T12:49:19.742Z,-20567.94
2022-09-21T12:51:50.785Z,-20552.78
2022-09-21T12:54:21.729Z,-20558.38
2022-09-21T12:56:54.631Z,-20572.03
2022-09-21T12:59:31.948Z,-20569.94
2022-09-21T13:02:05.686Z,-20574.63
2022-09-21T13:04:41.803Z,-20571.13
2022-09-21T13:07:19.558Z,-20592.19
2022-09-21T13:09:47.783Z,-20579.47
2022-09-21T13:12:19.175Z,-20589.31
2022-09-21T13:14:48.154Z,-20553.69
2022-09-21T13:17:21.449Z,-20558.84
2022-09-21T13:19:57.421Z,-20546.41
2022-09-21T13:22:26.425Z,-20543.06
2022-09-21T13:25:03.241Z,-20521.22
2022-09-21T13:28:00.494Z,-20528.81
2022-09-21T13:30:33.058Z,-20533.66
2022-09-21T13:33:01.262Z,-20537.59
2022-09-21T13:35:47.841Z,-20539.28
2022-09-21T13:38:25.211Z,-20552.63
2022-09-21T13:40:57.860Z,-20568.56
2022-09-21T13:43:46.232Z,-20575.84
2022-09-21T13:46:32.276Z,-20574.47
2022-09-21T13:49:00.626Z,-20548.22
2022-09-21T13:51:28.052Z,-20539.28
2022-09-21T13:53:59.143Z,-20545.19
2022-09-21T13:56:28.807Z,-20531.22
2022-09-21T13:58:59.265Z,-20528.81
2022-09-21T14:01:48.308Z,-20537.59
2022-09-21T14:04:19.274Z,-20529.09
2022-09-21T14:06:49.659Z,-20544.44
2022-09-21T14:09:22.669Z,-20559.44
2022-09-21T14:11:56.082Z,-20562.78
2022-09-21T14:14:27.946Z,-20563.41
2022-09-21T14:16:57.720Z,-20568.88
2022-09-21T14:19:43.044Z,-20589.78
2022-09-21T14:22:29.834Z,-20589.63
2022-09-21T14:27:45.702Z,-20585.53
2022-09-21T14:30:20.020Z,-20578.56
2022-09-21T14:32:52.018Z,-20571.59
2022-09-21T14:35:21.090Z,-20536.09
2022-09-21T14:37:52.175Z,-20537.31
2022-09-21T14:40:23.608Z,-20534.56
2022-09-21T14:42:52.110Z,-20533.66
2022-09-21T14:45:24.986Z,-20530.63
2022-09-21T14:47:58.587Z,-20521.22
2022-09-21T14:50:31.961Z,-20537.75
2022-09-21T14:53:18.282Z,-20546.09
2022-09-21T14:55:55.437Z,-20531.84
2022-09-21T14:58:31.358Z,-20532.44
2022-09-21T15:01:20.652Z,-20543.97
2022-09-21T15:03:59.938Z,-20544.28
2022-09-21T15:06:48.509Z,-20542.16
2022-09-21T15:09:42.767Z,-20540.63
2022-09-21T15:12:13.171Z,-20530.31
2022-09-21T15:14:43.434Z,-20527.88
2022-09-21T15:17:24.017Z,-20533.66
2022-09-21T15:19:51.991Z,-20543.38
2022-09-21T15:22:20.581Z,-20537.59
2022-09-21T15:24:51.720Z,-20547.00
2022-09-21T15:27:19.970Z,-20557.63
2022-09-21T15:29:49.142Z,-20539.72
2022-09-21T15:32:25.305Z,-20548.53
2022-09-21T15:34:59.626Z,-20539.28
2022-09-21T15:37:27.079Z,-20535.19
2022-09-21T15:40:00.909Z,-20532.44
2022-09-21T15:42:30.070Z,-20523.34
2022-09-21T15:45:06.431Z,-20520.59
2022-09-21T15:47:35.433Z,-20526.06
2022-09-21T15:50:03.391Z,-20518.19
2022-09-21T15:52:38.085Z,-20511.03
2022-09-21T15:55:11.495Z,-20502.69
2022-09-21T15:57:41.258Z,-20502.22
2022-09-21T16:00:19.264Z,-20495.84
2022-09-21T16:03:04.230Z,-20492.03
2022-09-21T16:05:34.834Z,-20479.28
2022-09-21T16:08:09.340Z,-20486.88
2022-09-21T16:10:41.395Z,-20480.50
2022-09-21T16:13:36.483Z,-20485.97
2022-09-21T16:16:06.774Z,-20484.75
2022-09-21T16:18:43.164Z,-20484.44
2022-09-21T16:21:20.402Z,-20478.66
2022-09-21T16:23:49.126Z,-20481.25
2022-09-21T16:26:25.373Z,-20478.38
2022-09-21T16:29:15.449Z,-20484.75
2022-09-21T16:31:49.037Z,-20475.63
2022-09-21T16:34:33.172Z,-20482.16
2022-09-21T16:37:02.690Z,-20473.81
2022-09-21T16:39:30.306Z,-20472.75
2022-09-21T16:42:02.137Z,-20474.09
2022-09-21T16:44:31.611Z,-20465.75
2022-09-21T16:47:02.215Z,-20462.41
2022-09-21T16:49:33.500Z,-20465.59
2022-09-21T16:52:01.618Z,-20460.25
2022-09-21T16:54:30.173Z,-20453.72
2022-09-21T16:56:59.330Z,-20453.41
2022-09-21T16:59:27.617Z,-20456.78
2022-09-21T17:01:58.574Z,-20447.94
2022-09-21T17:04:28.623Z,-20441.09
2022-09-21T17:06:58.382Z,-20439.13
2022-09-21T17:09:29.923Z,-20436.38
2022-09-21T17:11:59.337Z,-20440.50
2022-09-21T17:14:27.251Z,-20439.41
2022-09-21T17:16:58.077Z,-20437.00
2022-09-21T17:19:26.435Z,-20435.47
2022-09-21T17:21:54.082Z,-20434.72
2022-09-21T17:24:48.693Z,-20425.13
2022-09-21T17:27:12.275Z,-20419.03
2022-09-21T17:29:47.240Z,-20422.53
2022-09-21T17:32:15.760Z,-20410.50
2022-09-21T17:34:43.635Z,-20414.31
2022-09-21T17:37:11.398Z,-20407.00
2022-09-21T17:39:41.629Z,-20404.41
2022-09-21T17:42:19.002Z,-20401.97
2022-09-21T17:45:12.373Z,-20390.69
2022-09-21T17:47:41.292Z,-20382.63
2022-09-21T17:50:27.841Z,-20371.78
2022-09-21T17:53:14.310Z,-20363.88
2022-09-21T17:55:48.093Z,-20367.81
2022-09-21T17:58:34.729Z,-20369.03
2022-09-21T18:01:08.509Z,-20363.56
2022-09-21T18:03:41.090Z,-20357.91
2022-09-21T18:06:10.863Z,-20353.19
2022-09-21T18:08:39.978Z,-20345.09
2022-09-21T18:11:30.971Z,-20344.03
2022-09-21T18:14:05.581Z,-20339.00
2022-09-21T18:16:41.605Z,-20335.19
2022-09-21T18:19:26.321Z,-20330.59
2022-09-21T18:22:02.490Z,-20329.06
2022-09-21T18:24:32.481Z,-20325.25
2022-09-21T18:27:02.458Z,-20324.19
2022-09-21T18:29:41.117Z,-20316.41
2022-09-21T18:32:32.238Z,-20310.16
2022-09-21T18:35:19.368Z,-20307.84
2022-09-21T18:37:59.498Z,-20309.53
2022-09-21T18:40:35.518Z,-20302.81
2022-09-21T18:43:13.406Z,-20299.75
2022-09-21T18:45:44.546Z,-20293.66
2022-09-21T18:48:22.662Z,-20289.69
2022-09-21T18:51:02.336Z,-20284.94
2022-09-21T18:53:36.979Z,-20280.66
2022-09-21T18:56:06.017Z,-20280.50
2022-09-21T18:58:36.534Z,-20275.31
2022-09-21T19:01:05.116Z,-20273.47
2022-09-21T19:03:33.614Z,-20271.63
2022-09-21T19:06:27.302Z,-20266.75
2022-09-21T19:09:03.687Z,-20266.13
2022-09-21T19:11:38.090Z,-20263.69
2022-09-21T19:14:18.879Z,-20261.25
2022-09-21T19:16:57.511Z,-20259.09
2022-09-21T19:19:34.144Z,-20258.34
2022-09-21T19:22:13.563Z,-20254.38
2022-09-21T19:24:48.662Z,-20254.97
2022-09-21T19:27:23.100Z,-20255.13
2022-09-21T19:30:04.404Z,-20249.63
2022-09-21T19:32:39.685Z,-20245.03
2022-09-21T19:35:17.459Z,-20244.44
2022-09-21T19:37:46.495Z,-20242.75
2022-09-21T19:40:15.547Z,-20239.53
2022-09-21T19:42:59.338Z,-20235.84
2022-09-21T19:45:36.763Z,-20235.56
2022-09-21T19:48:10.122Z,-20234.63
2022-09-21T19:50:41.929Z,-20232.19
2022-09-21T19:53:29.014Z,-20232.50
2022-09-21T19:56:16.248Z,-20234.03
2022-09-21T19:59:02.175Z,-20230.34
2022-09-21T20:01:35.149Z,-20228.22
2022-09-21T20:04:03.964Z,-20225.44
2022-09-21T20:06:39.839Z,-20227.13
2022-09-21T20:09:12.418Z,-20223.31
2022-09-21T20:11:47.385Z,-20221.31
2022-09-21T20:14:23.774Z,-20218.56
2022-09-21T20:16:55.294Z,-20215.50
2022-09-21T20:19:34.982Z,-20215.06
2022-09-21T20:22:05.312Z,-20212.44
2022-09-21T20:24:39.212Z,-20209.53
2022-09-21T20:27:22.122Z,-20209.69
2022-09-21T20:29:49.657Z,-20208.16
2022-09-21T20:32:18.915Z,-20209.06
2022-09-21T20:34:46.426Z,-20205.56
2022-09-21T20:37:14.401Z,-20202.34
2022-09-21T20:39:42.221Z,-20202.19
2022-09-21T20:42:18.228Z,-20202.81
2022-09-21T20:44:45.763Z,-20202.19
2022-09-21T20:47:13.324Z,-20201.28
2022-09-21T20:49:42.615Z,-20198.97
2022-09-21T20:52:11.182Z,-20199.44
2022-09-21T20:54:38.753Z,-20198.53
2022-09-21T20:57:06.558Z,-20197.28
2022-09-21T20:59:34.200Z,-20196.06
2022-09-21T21:02:01.766Z,-20195.75
2022-09-21T21:04:29.655Z,-20193.63
2022-09-21T21:06:58.685Z,-20191.78
2022-09-21T21:09:28.216Z,-20190.25
2022-09-21T21:11:56.306Z,-20187.94
2022-09-21T21:14:23.910Z,-20187.50
2022-09-21T21:16:51.486Z,-20185.81
2022-09-21T21:19:19.404Z,-20186.28
2022-09-21T21:21:47.200Z,-20184.72
2022-09-21T21:24:33.777Z,-20181.22
2022-09-21T21:27:02.898Z,-20180.28
2022-09-21T21:29:31.000Z,-20178.75
2022-09-21T21:31:59.945Z,-20176.78
2022-09-21T21:34:27.626Z,-20178.00
2022-09-21T21:36:55.255Z,-20178.44
2022-09-21T21:39:24.219Z,-20176.16
2022-09-21T21:41:51.955Z,-20173.56
2022-09-21T21:44:19.482Z,-20173.09
2022-09-21T21:46:47.014Z,-20173.41
2022-09-21T21:49:14.690Z,-20170.03
2022-09-21T21:51:43.751Z,-20168.34
2022-09-21T21:54:11.347Z,-20166.66
2022-09-21T21:56:40.472Z,-20166.34
2022-09-21T21:59:08.173Z,-20164.06
2022-09-21T22:01:35.797Z,-20166.03
2022-09-21T22:04:04.091Z,-20164.50
2022-09-21T22:06:34.457Z,-20162.53
2022-09-21T22:09:03.018Z,-20161.00
2022-09-21T22:11:31.234Z,-20163.59
2022-09-21T22:14:01.462Z,-20160.69
2022-09-21T22:16:31.401Z,-20160.69
2022-09-21T22:19:00.026Z,-20160.38
2022-09-21T22:21:29.254Z,-20160.22
2022-09-21T22:23:58.940Z,-20160.38
2022-09-21T22:26:27.993Z,-20160.22
2022-09-21T22:28:58.328Z,-20158.69
2022-09-21T22:31:29.608Z,-20154.72
2022-09-21T22:34:22.947Z,-20155.31
2022-09-21T22:36:50.644Z,-20156.84
2022-09-21T22:39:18.440Z,-20154.25
2022-09-21T22:41:46.076Z,-20153.34
2022-09-21T22:44:14.086Z,-20152.56
2022-09-21T22:46:43.073Z,-20149.34
2022-09-21T22:49:10.992Z,-20146.59
2022-09-21T22:51:38.857Z,-20147.97
2022-09-21T22:54:06.969Z,-20146.91
2022-09-21T22:56:35.112Z,-20148.28
2022-09-21T22:59:04.303Z,-20146.28
2022-09-21T23:01:34.330Z,-20146.13
2022-09-21T23:04:06.155Z,-20143.81
2022-09-21T23:06:36.253Z,-20143.22
2022-09-21T23:09:07.182Z,-20140.75
2022-09-21T23:11:36.370Z,-20141.38
2022-09-21T23:14:04.622Z,-20139.06
2022-09-21T23:16:32.695Z,-20138.00
2022-09-21T23:19:01.479Z,-20140.16
2022-09-21T23:21:31.342Z,-20136.63
2022-09-21T23:24:01.293Z,-20135.53
2022-09-21T23:26:30.937Z,-20134.00
2022-09-21T23:29:00.452Z,-20136.63
2022-09-21T23:31:29.018Z,-20135.09
2022-09-21T23:33:59.017Z,-20134.16
2022-09-21T23:36:28.680Z,-20132.63
2022-09-21T23:38:58.607Z,-20130.78
2022-09-21T23:41:28.126Z,-20130.50
2022-09-21T23:43:56.707Z,-20129.25
2022-09-21T23:46:26.407Z,-20128.97
2022-09-21T23:48:54.361Z,-20130.94
2022-09-21T23:51:22.679Z,-20126.50
2022-09-21T23:53:50.521Z,-20126.19
2022-09-21T23:56:21.353Z,-20126.50
2022-09-21T23:58:49.262Z,-20125.75
